Polar Bear — ZMA2072 — position and weather

sailwx.info

Track history (hours):
 
Tides and Currents Weather Stations Pressure Air Temp Water Temp Dewpoint Dewpoint Depression Visibility Wind Speed Wind Dir Waves Ship Positions

Polar Bear

Last reported at 2015-May-28 01:12 UTC. Time now 2015-May-28 14:10 UTC.
Position N 49°10' W 123°56'.

Length 28 m; draft 2.3 m.

Type: Pleasure craft. MMSI: 512172000.

Date/timePositionNaut miles runAvg speedWind from/ knotsBaromVisibWave heightAir tempDewpointWater temp
2015-May-28 01:12N 49°10' W 123°56'6 8.6
2015-May-28 00:29N 49°13' W 123°48'9 9.8
2015-May-27 23:34N 49°15' W 123°34'10 9.6
2015-May-27 22:34N 49°17' W 123°20'9 8.7
2015-May-27 21:34N 49°18' W 123°07'1 1.1
2015-May-27 20:34N 49°19' W 123°05'0 0.5
2015-May-27 19:33N 49°19' W 123°06'1 1.3
2015-May-27 18:34N 49°17' W 123°05'2 1.6
2015-May-27 17:33N 49°18' W 123°07'4 3.5
2015-May-27 16:34N 49°20' W 123°11'0 0.1
2015-May-27 15:34N 49°20' W 123°11'2 2.3
2015-May-27 14:32N 49°20' W 123°15'0 0.0
2015-May-27 13:32N 49°20' W 123°15'0 0.0
2015-May-27 12:32N 49°20' W 123°15'0 0.0
2015-May-27 11:32N 49°20' W 123°15'0 0.0
2015-May-27 10:32N 49°20' W 123°15'0 0.0
2015-May-27 09:32N 49°20' W 123°15'0 0.0
2015-May-27 08:32N 49°20' W 123°15'0 0.0
2015-May-27 07:32N 49°20' W 123°15'0 0.0
2015-May-27 06:32N 49°20' W 123°15'0 0.0
2015-May-27 05:32N 49°20' W 123°15'0 0.0
2015-May-27 04:32N 49°20' W 123°15'0 0.0
2015-May-27 03:29N 49°20' W 123°15'0 0.1
2015-May-27 02:33N 49°20' W 123°15'4 3.7
2015-May-27 01:33N 49°19' W 123°09'3 2.5
2015-May-27 00:31N 49°17' W 123°10'0 0.0
2015-May-26 23:31N 49°17' W 123°10'0 0.0
2015-May-26 22:28N 49°17' W 123°10'0 0.0
2015-May-26 21:31N 49°17' W 123°10'0 0.0
2015-May-26 20:28N 49°17' W 123°10'0 0.0
2015-May-26 19:31N 49°17' W 123°10'0 0.0
2015-May-26 18:31N 49°17' W 123°10'0 0.0
2015-May-26 17:31N 49°17' W 123°10'2 2.6
2015-May-26 16:33N 49°18' W 123°12'6 6.0
2015-May-26 15:33N 49°24' W 123°16'9 0.6
2015-May-26 00:06N 49°28' W 123°28'1 2.0
2015-May-25 23:30N 49°27' W 123°27'2 0.1
2015-May-25 02:29N 49°28' W 123°25'6 6.7
2015-May-25 01:33N 49°24' W 123°17'3 3.4
2015-May-25 00:33N 49°21' W 123°17'3 3.4
2015-May-24 23:33N 49°19' W 123°12'3 2.9
2015-May-24 22:33N 49°19' W 123°08'0 0.3
2015-May-24 21:33N 49°18' W 123°08'1 0.8
2015-May-24 20:33N 49°18' W 123°07'1 0.6
2015-May-24 19:33N 49°18' W 123°07'2 2.3
2015-May-24 18:33N 49°19' W 123°10'3 2.6
2015-May-24 17:33N 49°18' W 123°06'1 1.1
2015-May-24 16:33N 49°18' W 123°05'5 3.5
2015-May-24 15:04N 49°18' W 122°57'9 0.7
2015-May-24 03:22N 49°26' W 122°52'7 8.1
2015-May-24 02:33N 49°20' W 122°55'6 6.0
2015-May-24 01:33N 49°18' W 123°04'7 7.3
2015-May-24 00:33N 49°20' W 123°15'0 0.0
2015-May-23 23:32N 49°20' W 123°15'0 0.0
2015-May-23 22:32N 49°20' W 123°15'0 0.0
2015-May-23 21:29N 49°20' W 123°15'0 0.0
2015-May-23 20:32N 49°20' W 123°15'0 0.0
2015-May-23 19:32N 49°20' W 123°15'0 0.0
2015-May-23 18:32N 49°20' W 123°15'0 0.0
2015-May-23 17:32N 49°20' W 123°15'0 0.0
2015-May-23 16:32N 49°20' W 123°15'0 0.0
2015-May-23 15:32N 49°20' W 123°15'0 0.0
2015-May-23 14:32N 49°20' W 123°15'0 0.0
2015-May-23 13:32N 49°20' W 123°15'0 0.0
2015-May-23 12:32N 49°20' W 123°15'0 0.0
2015-May-23 11:32N 49°20' W 123°15'0 0.0
2015-May-23 10:32N 49°20' W 123°15'0 0.0
2015-May-23 09:32N 49°20' W 123°15'0 0.0
2015-May-23 08:32N 49°20' W 123°15'0 0.0
2015-May-23 07:32N 49°20' W 123°15'0 0.0
2015-May-23 06:32N 49°20' W 123°15'0 0.0
2015-May-23 05:32N 49°20' W 123°15'0 0.0
2015-May-23 04:32N 49°20' W 123°15'0 0.0
2015-May-23 03:32N 49°20' W 123°15'1 1.1
2015-May-23 02:33N 49°20' W 123°13'3 2.6
2015-May-23 01:33N 49°19' W 123°09'1 0.5
2015-May-23 00:33N 49°19' W 123°10'3 3.2
2015-May-22 23:31N 49°16' W 123°08'0 0.0
2015-May-22 22:31N 49°16' W 123°08'0 0.0
2015-May-22 21:31N 49°16' W 123°08'0 0.0
2015-May-22 20:22N 49°16' W 123°08'0 0.0
2015-May-22 19:31N 49°16' W 123°08'0 0.0
2015-May-22 18:28N 49°16' W 123°08'0 0.0
2015-May-22 17:28N 49°16' W 123°08'0 0.0
2015-May-22 16:28N 49°16' W 123°08'0 0.0
2015-May-22 15:31N 49°16' W 123°08'0 0.0
2015-May-22 14:22N 49°16' W 123°08'0 0.0
2015-May-22 13:28N 49°16' W 123°08'0 0.0
2015-May-22 12:31N 49°16' W 123°08'0 0.0
2015-May-22 11:31N 49°16' W 123°08'0 0.0
2015-May-22 10:28N 49°16' W 123°08'0 0.0
2015-May-22 09:31N 49°16' W 123°08'0 0.0
2015-May-22 08:31N 49°16' W 123°08'0 0.0
2015-May-22 07:28N 49°16' W 123°08'0 0.0
2015-May-22 06:28N 49°16' W 123°08'0 0.0
2015-May-22 05:31N 49°16' W 123°08'0 0.0
2015-May-22 04:28N 49°16' W 123°08'0 0.0
2015-May-22 03:28N 49°16' W 123°08'0 0.0
2015-May-22 02:28N 49°16' W 123°08'0 0.0
2015-May-22 01:31N 49°16' W 123°08'0 0.0
2015-May-22 00:28N 49°16' W 123°08'0 0.0
2015-May-21 23:31N 49°16' W 123°08'0 0.0
2015-May-21 22:31N 49°16' W 123°08'0 0.0
2015-May-21 21:28N 49°16' W 123°08'0 0.0
2015-May-21 20:31N 49°16' W 123°08'0 0.0
2015-May-21 19:31N 49°16' W 123°08'0 0.0
2015-May-21 18:25N 49°16' W 123°08'0 0.0
2015-May-21 17:34N 49°16' W 123°08'5 4.8
2015-May-21 16:33N 49°17' W 123°15'10 9.8
2015-May-21 15:34N 49°15' W 123°30'10 9.7
2015-May-21 14:33N 49°13' W 123°45'8 2.3
2015-May-21 11:04N 49°10' W 123°56'0 0.0
2015-May-21 10:28N 49°10' W 123°56'0 0.0
2015-May-21 09:28N 49°10' W 123°56'0 0.0
2015-May-21 08:28N 49°10' W 123°56'0 0.0
2015-May-21 07:22N 49°10' W 123°56'0 0.0
2015-May-21 03:04N 49°10' W 123°56'0 0.0
2015-May-21 02:04N 49°10' W 123°56'0 0.0
2015-May-21 01:22N 49°10' W 123°56'0 0.0
2015-May-21 00:16N 49°10' W 123°56'  
Track history (hours):
 
Tides and Currents Weather Stations Pressure Air Temp Water Temp Dewpoint Dewpoint Depression Visibility Wind Speed Wind Dir Waves Ship Positions

Polar Bear

Last reported at 2015-May-28 01:12 UTC. Time now 2015-May-28 14:10 UTC.
Position N 49°10' W 123°56'.

Length 28 m; draft 2.3 m.

Type: Pleasure craft. MMSI: 512172000.

Date/timePositionNaut miles runAvg speedWind from/ knotsBaromVisibWave heightAir tempDewpointWater temp
2015-May-28 01:12N 49°10' W 123°56'6 8.6
2015-May-28 00:29N 49°13' W 123°48'9 9.8
2015-May-27 23:34N 49°15' W 123°34'10 9.6
2015-May-27 22:34N 49°17' W 123°20'9 8.7
2015-May-27 21:34N 49°18' W 123°07'1 1.1
2015-May-27 20:34N 49°19' W 123°05'0 0.5
2015-May-27 19:33N 49°19' W 123°06'1 1.3
2015-May-27 18:34N 49°17' W 123°05'2 1.6
2015-May-27 17:33N 49°18' W 123°07'4 3.5
2015-May-27 16:34N 49°20' W 123°11'0 0.1
2015-May-27 15:34N 49°20' W 123°11'2 2.3
2015-May-27 14:32N 49°20' W 123°15'0 0.0
2015-May-27 13:32N 49°20' W 123°15'0 0.0
2015-May-27 12:32N 49°20' W 123°15'0 0.0
2015-May-27 11:32N 49°20' W 123°15'0 0.0
2015-May-27 10:32N 49°20' W 123°15'0 0.0
2015-May-27 09:32N 49°20' W 123°15'0 0.0
2015-May-27 08:32N 49°20' W 123°15'0 0.0
2015-May-27 07:32N 49°20' W 123°15'0 0.0
2015-May-27 06:32N 49°20' W 123°15'0 0.0
2015-May-27 05:32N 49°20' W 123°15'0 0.0
2015-May-27 04:32N 49°20' W 123°15'0 0.0
2015-May-27 03:29N 49°20' W 123°15'0 0.1
2015-May-27 02:33N 49°20' W 123°15'4 3.7
2015-May-27 01:33N 49°19' W 123°09'3 2.5
2015-May-27 00:31N 49°17' W 123°10'0 0.0
2015-May-26 23:31N 49°17' W 123°10'0 0.0
2015-May-26 22:28N 49°17' W 123°10'0 0.0
2015-May-26 21:31N 49°17' W 123°10'0 0.0
2015-May-26 20:28N 49°17' W 123°10'0 0.0
2015-May-26 19:31N 49°17' W 123°10'0 0.0
2015-May-26 18:31N 49°17' W 123°10'0 0.0
2015-May-26 17:31N 49°17' W 123°10'2 2.6
2015-May-26 16:33N 49°18' W 123°12'6 6.0
2015-May-26 15:33N 49°24' W 123°16'9 0.6
2015-May-26 00:06N 49°28' W 123°28'1 2.0
2015-May-25 23:30N 49°27' W 123°27'2 0.1
2015-May-25 02:29N 49°28' W 123°25'6 6.7
2015-May-25 01:33N 49°24' W 123°17'3 3.4
2015-May-25 00:33N 49°21' W 123°17'3 3.4
2015-May-24 23:33N 49°19' W 123°12'3 2.9
2015-May-24 22:33N 49°19' W 123°08'0 0.3
2015-May-24 21:33N 49°18' W 123°08'1 0.8
2015-May-24 20:33N 49°18' W 123°07'1 0.6
2015-May-24 19:33N 49°18' W 123°07'2 2.3
2015-May-24 18:33N 49°19' W 123°10'3 2.6
2015-May-24 17:33N 49°18' W 123°06'1 1.1
2015-May-24 16:33N 49°18' W 123°05'5 3.5
2015-May-24 15:04N 49°18' W 122°57'9 0.7
2015-May-24 03:22N 49°26' W 122°52'7 8.1
2015-May-24 02:33N 49°20' W 122°55'6 6.0
2015-May-24 01:33N 49°18' W 123°04'7 7.3
2015-May-24 00:33N 49°20' W 123°15'0 0.0
2015-May-23 23:32N 49°20' W 123°15'0 0.0
2015-May-23 22:32N 49°20' W 123°15'0 0.0
2015-May-23 21:29N 49°20' W 123°15'0 0.0
2015-May-23 20:32N 49°20' W 123°15'0 0.0
2015-May-23 19:32N 49°20' W 123°15'0 0.0
2015-May-23 18:32N 49°20' W 123°15'0 0.0
2015-May-23 17:32N 49°20' W 123°15'0 0.0
2015-May-23 16:32N 49°20' W 123°15'0 0.0
2015-May-23 15:32N 49°20' W 123°15'0 0.0
2015-May-23 14:32N 49°20' W 123°15'0 0.0
2015-May-23 13:32N 49°20' W 123°15'0 0.0
2015-May-23 12:32N 49°20' W 123°15'0 0.0
2015-May-23 11:32N 49°20' W 123°15'0 0.0
2015-May-23 10:32N 49°20' W 123°15'0 0.0
2015-May-23 09:32N 49°20' W 123°15'0 0.0
2015-May-23 08:32N 49°20' W 123°15'0 0.0
2015-May-23 07:32N 49°20' W 123°15'0 0.0
2015-May-23 06:32N 49°20' W 123°15'0 0.0
2015-May-23 05:32N 49°20' W 123°15'0 0.0
2015-May-23 04:32N 49°20' W 123°15'0 0.0
2015-May-23 03:32N 49°20' W 123°15'1 1.1
2015-May-23 02:33N 49°20' W 123°13'3 2.6
2015-May-23 01:33N 49°19' W 123°09'1 0.5
2015-May-23 00:33N 49°19' W 123°10'3 3.2
2015-May-22 23:31N 49°16' W 123°08'0 0.0
2015-May-22 22:31N 49°16' W 123°08'0 0.0
2015-May-22 21:31N 49°16' W 123°08'0 0.0
2015-May-22 20:22N 49°16' W 123°08'0 0.0
2015-May-22 19:31N 49°16' W 123°08'0 0.0
2015-May-22 18:28N 49°16' W 123°08'0 0.0
2015-May-22 17:28N 49°16' W 123°08'0 0.0
2015-May-22 16:28N 49°16' W 123°08'0 0.0
2015-May-22 15:31N 49°16' W 123°08'0 0.0
2015-May-22 14:22N 49°16' W 123°08'0 0.0
2015-May-22 13:28N 49°16' W 123°08'0 0.0
2015-May-22 12:31N 49°16' W 123°08'0 0.0
2015-May-22 11:31N 49°16' W 123°08'0 0.0
2015-May-22 10:28N 49°16' W 123°08'0 0.0
2015-May-22 09:31N 49°16' W 123°08'0 0.0
2015-May-22 08:31N 49°16' W 123°08'0 0.0
2015-May-22 07:28N 49°16' W 123°08'0 0.0
2015-May-22 06:28N 49°16' W 123°08'0 0.0
2015-May-22 05:31N 49°16' W 123°08'0 0.0
2015-May-22 04:28N 49°16' W 123°08'0 0.0
2015-May-22 03:28N 49°16' W 123°08'0 0.0
2015-May-22 02:28N 49°16' W 123°08'0 0.0
2015-May-22 01:31N 49°16' W 123°08'0 0.0
2015-May-22 00:28N 49°16' W 123°08'0 0.0
2015-May-21 23:31N 49°16' W 123°08'0 0.0
2015-May-21 22:31N 49°16' W 123°08'0 0.0
2015-May-21 21:28N 49°16' W 123°08'0 0.0
2015-May-21 20:31N 49°16' W 123°08'0 0.0
2015-May-21 19:31N 49°16' W 123°08'0 0.0
2015-May-21 18:25N 49°16' W 123°08'0 0.0
2015-May-21 17:34N 49°16' W 123°08'5 4.8
2015-May-21 16:33N 49°17' W 123°15'10 9.8
2015-May-21 15:34N 49°15' W 123°30'10 9.7
2015-May-21 14:33N 49°13' W 123°45'8 2.3
2015-May-21 11:04N 49°10' W 123°56'0 0.0
2015-May-21 10:28N 49°10' W 123°56'0 0.0
2015-May-21 09:28N 49°10' W 123°56'0 0.0
2015-May-21 08:28N 49°10' W 123°56'0 0.0
2015-May-21 07:22N 49°10' W 123°56'0 0.0
2015-May-21 03:04N 49°10' W 123°56'0 0.0
2015-May-21 02:04N 49°10' W 123°56'0 0.0
2015-May-21 01:22N 49°10' W 123°56'0 0.0
2015-May-21 00:16N 49°10' W 123°56'  

Dump ship's entire track history